Time;durP1;ratioP1;P1;durP2;ratioP2;P2;SDS_P1;SDS_P2;PMS_P1;PMS_P2;Temp;Humidity;BMP_temperature;BMP_pressure;BME280_temperature;BME280_humidity;BME280_pressure;Samples;Min_cycle;Max_cycle;Signal;HPM_P1;HPM_P2
2021/09/10 00:01:12;;;;;;;;;0.00;0.00;;;;;;;;6339263;22;46903;-82
2021/09/10 00:03:38;;;;;;;;;0.00;0.00;;;;;;;;6339896;22;46917;-83
2021/09/10 00:06:03;;;;;;;;;0.00;0.00;;;;;;;;6340066;22;46828;-82
2021/09/10 00:08:28;;;;;;;;;0.00;0.00;;;;;;;;6339408;22;47447;-82
2021/09/10 00:10:54;;;;;;;;;0.00;0.00;;;;;;;;6339241;22;46908;-82
2021/09/10 00:13:19;;;;;;;;;0.00;0.00;;;;;;;;6339144;22;46781;-82
2021/09/10 00:15:44;;;;;;;;;0.00;0.00;;;;;;;;6337209;22;46847;-82
2021/09/10 00:18:10;;;;;;;;;0.00;0.00;;;;;;;;6337009;22;47161;-82
2021/09/10 00:20:35;;;;;;;;;0.00;0.00;;;;;;;;6339464;22;46775;-82
2021/09/10 00:23:00;;;;;;;;;0.00;0.00;;;;;;;;6310806;22;46671;-82
2021/09/10 00:25:26;;;;;;;;;0.00;0.00;;;;;;;;6339689;22;46751;-82
2021/09/10 00:27:51;;;;;;;;;0.00;0.00;;;;;;;;6339380;22;46753;-82
2021/09/10 00:30:17;;;;;;;;;0.00;0.00;;;;;;;;6305078;22;46825;-82
2021/09/10 00:32:42;;;;;;;;;0.00;0.00;;;;;;;;6307948;22;46824;-82
2021/09/10 00:35:08;;;;;;;;;0.00;0.00;;;;;;;;6308243;22;46728;-82
2021/09/10 00:37:33;;;;;;;;;0.00;0.00;;;;;;;;6305339;22;49125;-81
2021/09/10 00:39:58;;;;;;;;;0.00;0.00;;;;;;;;6307848;22;46780;-81
2021/09/10 00:42:24;;;;;;;;;0.00;0.00;;;;;;;;6307833;22;46782;-82
2021/09/10 00:44:49;;;;;;;;;0.00;0.00;;;;;;;;6308137;22;46807;-82
2021/09/10 00:47:15;;;;;;;;;0.00;0.00;;;;;;;;6307473;22;48011;-82
2021/09/10 00:49:41;;;;;;;;;0.00;0.00;;;;;;;;6307531;22;46915;-82
2021/09/10 00:52:07;;;;;;;;;0.00;0.00;;;;;;;;6305655;22;47045;-82
2021/09/10 00:54:32;;;;;;;;;0.00;0.00;;;;;;;;6307798;22;46831;-82
2021/09/10 00:56:58;;;;;;;;;0.00;0.00;;;;;;;;6307817;22;47803;-82
2021/09/10 00:59:24;;;;;;;;;0.00;0.00;;;;;;;;6307553;22;46761;-82
2021/09/10 01:01:50;;;;;;;;;0.00;0.00;;;;;;;;6307495;22;46883;-82
2021/09/10 01:04:15;;;;;;;;;0.00;0.00;;;;;;;;6308100;22;46857;-82
2021/09/10 01:06:42;;;;;;;;;0.00;0.00;;;;;;;;6307624;22;47970;-82
2021/09/10 01:09:08;;;;;;;;;0.00;0.00;;;;;;;;6307538;22;46713;-82
2021/09/10 01:11:33;;;;;;;;;0.00;0.00;;;;;;;;6305501;22;46784;-82
2021/09/10 01:13:59;;;;;;;;;0.00;0.00;;;;;;;;6305577;22;47172;-81
2021/09/10 01:16:25;;;;;;;;;0.00;0.00;;;;;;;;6307037;22;48022;-82
2021/09/10 01:18:50;;;;;;;;;0.00;0.00;;;;;;;;6307520;22;46807;-82
2021/09/10 01:21:15;;;;;;;;;0.00;0.00;;;;;;;;6307606;22;46919;-82
2021/09/10 01:23:41;;;;;;;;;0.00;0.00;;;;;;;;6307236;22;46967;-82
2021/09/10 01:26:07;;;;;;;;;0.00;0.00;;;;;;;;6307504;22;47645;-82
2021/09/10 01:28:32;;;;;;;;;0.00;0.00;;;;;;;;6306950;22;46856;-81
2021/09/10 01:30:57;;;;;;;;;0.00;0.00;;;;;;;;6331691;22;46935;-81
2021/09/10 01:33:23;;;;;;;;;0.00;0.00;;;;;;;;6338718;22;46970;-81
2021/09/10 01:35:48;;;;;;;;;0.00;0.00;;;;;;;;6338958;22;46930;-81
2021/09/10 01:38:14;;;;;;;;;0.00;0.00;;;;;;;;6338748;22;46926;-82
2021/09/10 01:40:39;;;;;;;;;0.00;0.00;;;;;;;;6339036;22;46908;-82
2021/09/10 01:43:06;;;;;;;;;0.00;0.00;;;;;;;;6338916;22;46853;-82
2021/09/10 01:45:31;;;;;;;;;0.00;0.00;;;;;;;;6338597;22;46878;-82
2021/09/10 01:47:57;;;;;;;;;0.00;0.00;;;;;;;;6310216;22;47584;-82
2021/09/10 01:50:24;;;;;;;;;0.00;0.00;;;;;;;;6338754;22;46921;-82
2021/09/10 01:52:50;;;;;;;;;0.00;0.00;;;;;;;;6338769;22;46848;-82
2021/09/10 01:55:15;;;;;;;;;0.00;0.00;;;;;;;;6338888;22;46922;-82
2021/09/10 01:57:42;;;;;;;;;0.00;0.00;;;;;;;;6338881;22;46866;-81
2021/09/10 02:00:08;;;;;;;;;0.00;0.00;;;;;;;;6310195;22;46772;-82
2021/09/10 02:02:34;;;;;;;;;0.00;0.00;;;;;;;;6338958;22;46874;-82
2021/09/10 02:04:59;;;;;;;;;0.00;0.00;;;;;;;;6338749;22;47076;-82
2021/09/10 02:07:25;;;;;;;;;0.00;0.00;;;;;;;;6338167;22;46730;-82
2021/09/10 02:09:50;;;;;;;;;0.00;0.00;;;;;;;;6338737;22;46651;-82
2021/09/10 02:12:16;;;;;;;;;0.00;0.00;;;;;;;;6338319;22;46705;-82
2021/09/10 02:14:41;;;;;;;;;0.00;0.00;;;;;;;;6338488;22;47592;-82
2021/09/10 02:17:07;;;;;;;;;0.00;0.00;;;;;;;;6338431;22;46833;-82
2021/09/10 02:19:32;;;;;;;;;0.00;0.00;;;;;;;;6338700;22;46895;-82
2021/09/10 02:21:58;;;;;;;;;0.00;0.00;;;;;;;;6338866;22;46735;-82
2021/09/10 02:24:23;;;;;;;;;0.00;0.00;;;;;;;;6338572;22;47850;-82
2021/09/10 02:26:49;;;;;;;;;0.00;0.00;;;;;;;;6338617;22;46785;-82
2021/09/10 02:29:15;;;;;;;;;0.00;0.00;;;;;;;;6338744;22;46891;-82
2021/09/10 02:31:40;;;;;;;;;0.00;0.00;;;;;;;;6338513;22;47086;-82
2021/09/10 02:34:06;;;;;;;;;0.00;0.00;;;;;;;;6338676;22;46924;-82
2021/09/10 02:36:31;;;;;;;;;0.00;0.00;;;;;;;;6336429;22;46935;-82
2021/09/10 02:38:57;;;;;;;;;0.00;0.00;;;;;;;;6309909;22;46923;-82
2021/09/10 02:41:22;;;;;;;;;0.00;0.00;;;;;;;;6338775;22;46877;-82
2021/09/10 02:43:47;;;;;;;;;0.00;0.00;;;;;;;;6338051;22;46975;-82
2021/09/10 02:46:13;;;;;;;;;0.00;0.00;;;;;;;;6337898;22;47296;-82
2021/09/10 02:48:38;;;;;;;;;0.00;0.00;;;;;;;;6338692;22;46821;-82
2021/09/10 02:51:04;;;;;;;;;0.00;0.00;;;;;;;;6336298;22;46891;-82
2021/09/10 02:53:29;;;;;;;;;0.00;0.00;;;;;;;;6338240;22;47731;-82
2021/09/10 02:55:56;;;;;;;;;0.00;0.00;;;;;;;;6338168;22;46923;-82
2021/09/10 02:58:22;;;;;;;;;0.00;0.00;;;;;;;;6338363;22;46795;-82
2021/09/10 03:00:47;;;;;;;;;0.00;0.00;;;;;;;;6338372;22;46986;-82
2021/09/10 03:03:13;;;;;;;;;0.00;0.00;;;;;;;;6338322;22;46910;-82
2021/09/10 03:05:38;;;;;;;;;0.00;0.00;;;;;;;;6338323;22;46840;-82
2021/09/10 03:08:03;;;;;;;;;0.00;0.00;;;;;;;;6338475;22;46971;-82
2021/09/10 03:10:29;;;;;;;;;0.00;0.00;;;;;;;;6338577;22;46704;-82
2021/09/10 03:12:54;;;;;;;;;0.00;0.00;;;;;;;;6338191;22;46939;-82
2021/09/10 03:15:19;;;;;;;;;0.00;0.00;;;;;;;;6338127;22;46737;-82
2021/09/10 03:17:45;;;;;;;;;0.00;0.00;;;;;;;;6338507;22;46887;-82
2021/09/10 03:20:11;;;;;;;;;0.00;0.00;;;;;;;;6338819;22;46891;-82
2021/09/10 03:22:36;;;;;;;;;0.00;0.00;;;;;;;;6337954;22;46917;-82
2021/09/10 03:25:02;;;;;;;;;0.00;0.00;;;;;;;;6338478;22;46907;-82
2021/09/10 03:27:28;;;;;;;;;0.00;0.00;;;;;;;;6338152;22;47049;-82
2021/09/10 03:29:54;;;;;;;;;0.00;0.00;;;;;;;;6337913;22;46872;-81
2021/09/10 03:32:19;;;;;;;;;0.00;0.00;;;;;;;;6337983;22;46929;-81
2021/09/10 03:34:44;;;;;;;;;0.00;0.00;;;;;;;;6338007;22;46751;-81
2021/09/10 03:37:11;;;;;;;;;0.00;0.00;;;;;;;;6337868;22;46793;-81
2021/09/10 03:39:37;;;;;;;;;0.00;0.00;;;;;;;;6309891;22;46687;-81
2021/09/10 03:42:02;;;;;;;;;0.00;0.00;;;;;;;;6338095;22;46989;-81
2021/09/10 03:44:27;;;;;;;;;0.00;0.00;;;;;;;;6337976;22;46805;-81
2021/09/10 03:46:53;;;;;;;;;0.00;0.00;;;;;;;;6337941;22;47117;-81
2021/09/10 03:49:18;;;;;;;;;0.00;0.00;;;;;;;;6338518;22;46903;-81
2021/09/10 03:51:43;;;;;;;;;0.00;0.00;;;;;;;;6337831;22;46722;-81
2021/09/10 03:54:09;;;;;;;;;0.00;0.00;;;;;;;;6338136;22;46900;-81
2021/09/10 03:56:34;;;;;;;;;0.00;0.00;;;;;;;;6339116;22;46682;-81
2021/09/10 03:58:59;;;;;;;;;0.00;0.00;;;;;;;;6339958;22;47009;-81
2021/09/10 04:01:25;;;;;;;;;0.00;0.00;;;;;;;;6339248;22;47973;-81
2021/09/10 04:03:50;;;;;;;;;0.00;0.00;;;;;;;;6339524;22;46950;-81
2021/09/10 04:06:15;;;;;;;;;0.00;0.00;;;;;;;;6340007;22;46867;-81
2021/09/10 04:08:41;;;;;;;;;0.00;0.00;;;;;;;;6339935;22;46820;-81
2021/09/10 04:11:06;;;;;;;;;0.00;0.00;;;;;;;;6339406;22;46931;-82
2021/09/10 04:13:32;;;;;;;;;0.00;0.00;;;;;;;;6339261;22;46963;-82
2021/09/10 04:15:57;;;;;;;;;0.00;0.00;;;;;;;;6339041;22;46836;-82
2021/09/10 04:18:22;;;;;;;;;0.00;0.00;;;;;;;;6339989;22;46911;-82
2021/09/10 04:20:48;;;;;;;;;0.00;0.00;;;;;;;;6339313;22;46911;-82
2021/09/10 04:23:13;;;;;;;;;0.00;0.00;;;;;;;;6339458;22;46856;-82
2021/09/10 04:25:38;;;;;;;;;0.00;0.00;;;;;;;;6339602;22;46852;-82
2021/09/10 04:28:04;;;;;;;;;0.00;0.00;;;;;;;;6311193;22;46878;-82
2021/09/10 04:30:30;;;;;;;;;0.00;0.00;;;;;;;;6338354;22;47777;-82
2021/09/10 04:32:55;;;;;;;;;0.00;0.00;;;;;;;;6339402;22;46738;-81
2021/09/10 04:35:21;;;;;;;;;0.00;0.00;;;;;;;;6339380;22;47208;-81
2021/09/10 04:37:46;;;;;;;;;0.00;0.00;;;;;;;;6339530;22;47080;-81
2021/09/10 04:40:12;;;;;;;;;0.00;0.00;;;;;;;;6339065;22;46979;-81
2021/09/10 04:42:38;;;;;;;;;0.00;0.00;;;;;;;;6339158;22;46794;-81
2021/09/10 04:45:04;;;;;;;;;0.00;0.00;;;;;;;;6336699;22;46709;-82
2021/09/10 04:47:29;;;;;;;;;0.00;0.00;;;;;;;;6339644;22;47208;-82
2021/09/10 04:49:54;;;;;;;;;0.00;0.00;;;;;;;;6339499;22;46816;-82
2021/09/10 04:52:20;;;;;;;;;0.00;0.00;;;;;;;;6339367;22;46851;-81
2021/09/10 04:54:45;;;;;;;;;0.00;0.00;;;;;;;;6339101;22;47140;-82
2021/09/10 04:57:10;;;;;;;;;0.00;0.00;;;;;;;;6339643;22;47266;-82
2021/09/10 04:59:36;;;;;;;;;0.00;0.00;;;;;;;;6338933;22;47864;-81
2021/09/10 05:02:01;;;;;;;;;0.00;0.00;;;;;;;;6339086;22;46878;-81
2021/09/10 05:04:27;;;;;;;;;0.00;0.00;;;;;;;;6339353;22;46883;-82
2021/09/10 05:06:52;;;;;;;;;0.00;0.00;;;;;;;;6339233;22;47106;-82
2021/09/10 05:09:17;;;;;;;;;0.00;0.00;;;;;;;;6335843;22;47043;-81
2021/09/10 05:11:43;;;;;;;;;0.00;0.00;;;;;;;;6338812;22;46781;-81
2021/09/10 05:14:09;;;;;;;;;0.00;0.00;;;;;;;;6338839;22;46849;-81
2021/09/10 05:16:35;;;;;;;;;0.00;0.00;;;;;;;;6338714;22;47016;-81
2021/09/10 05:19:00;;;;;;;;;0.00;0.00;;;;;;;;6339121;22;46747;-82
2021/09/10 05:21:26;;;;;;;;;0.00;0.00;;;;;;;;6338841;22;46844;-80
2021/09/10 05:23:51;;;;;;;;;0.00;0.00;;;;;;;;6339029;22;46779;-80
2021/09/10 05:26:16;;;;;;;;;0.00;0.00;;;;;;;;6339462;22;47042;-81
2021/09/10 05:28:43;;;;;;;;;0.00;0.00;;;;;;;;6310174;22;48269;-81
2021/09/10 05:31:09;;;;;;;;;0.00;0.00;;;;;;;;6340451;22;46792;-80
2021/09/10 05:33:34;;;;;;;;;0.00;0.00;;;;;;;;6338926;22;46814;-81
2021/09/10 05:36:00;;;;;;;;;0.00;0.00;;;;;;;;6310975;22;47134;-81
2021/09/10 05:38:25;;;;;;;;;0.00;0.00;;;;;;;;6338980;22;47853;-81
2021/09/10 05:40:53;;;;;;;;;0.00;0.00;;;;;;;;6310457;22;47030;-81
2021/09/10 05:43:18;;;;;;;;;0.00;0.00;;;;;;;;6338848;22;46913;-80
2021/09/10 05:45:44;;;;;;;;;0.00;0.00;;;;;;;;6338729;22;46906;-80
2021/09/10 05:48:09;;;;;;;;;0.00;0.00;;;;;;;;6338830;22;46976;-81
2021/09/10 05:50:34;;;;;;;;;0.00;0.00;;;;;;;;6338177;22;46911;-80
2021/09/10 05:53:00;;;;;;;;;0.00;0.00;;;;;;;;6338616;22;46927;-80
2021/09/10 05:55:26;;;;;;;;;0.00;0.00;;;;;;;;6339076;22;46789;-80
2021/09/10 05:57:51;;;;;;;;;0.00;0.00;;;;;;;;6338092;22;47009;-81
2021/09/10 06:00:16;;;;;;;;;0.00;0.00;;;;;;;;6338469;22;46861;-80
2021/09/10 06:02:42;;;;;;;;;0.00;0.00;;;;;;;;6338590;22;47063;-81
2021/09/10 06:11:11;;;;;;;;;;;;;;;;;;;;;
2021/09/10 06:14:03;;;;;;;;;0.00;0.00;;;;;;;;6337391;22;72945;-85
2021/09/10 06:16:51;;;;;;;;;0.00;0.00;;;;;;;;6302718;22;47088;-85
2021/09/10 06:19:36;;;;;;;;;;;;;;;;;;;;;
2021/09/10 06:22:27;;;;;;;;;0.00;0.00;;;;;;;;6337505;22;75304;-85
2021/09/10 06:25:16;;;;;;;;;0.00;0.00;;;;;;;;6330689;22;46703;-85
2021/09/10 06:28:15;;;;;;;;;;;;;;;;;;;;;
2021/09/10 06:31:06;;;;;;;;;;;;;;;;;;;;;
2021/09/10 06:33:32;;;;;;;;;0.00;0.00;;;;;;;;6337682;22;74475;-82
2021/09/10 06:35:57;;;;;;;;;0.00;0.00;;;;;;;;6336683;22;46859;-82
2021/09/10 06:38:23;;;;;;;;;0.00;0.00;;;;;;;;6339120;22;46869;-82
2021/09/10 06:40:48;;;;;;;;;0.00;0.00;;;;;;;;6338589;22;46864;-81
2021/09/10 06:43:14;;;;;;;;;0.00;0.00;;;;;;;;6338689;22;47006;-81
2021/09/10 06:45:39;;;;;;;;;0.00;0.00;;;;;;;;6338333;22;46903;-81
2021/09/10 06:48:05;;;;;;;;;0.00;0.00;;;;;;;;6339150;22;46816;-81
2021/09/10 06:50:30;;;;;;;;;0.00;0.00;;;;;;;;6336346;22;48626;-81
2021/09/10 06:52:56;;;;;;;;;0.00;0.00;;;;;;;;6338518;22;46808;-81
2021/09/10 06:55:21;;;;;;;;;0.00;0.00;;;;;;;;6338765;22;46717;-81
2021/09/10 06:57:46;;;;;;;;;0.00;0.00;;;;;;;;6336620;22;46734;-81
2021/09/10 07:00:14;;;;;;;;;0.00;0.00;;;;;;;;6338300;22;46742;-82
2021/09/10 07:02:40;;;;;;;;;0.00;0.00;;;;;;;;6338482;22;46809;-82
2021/09/10 07:05:05;;;;;;;;;0.00;0.00;;;;;;;;6338591;22;46840;-81
2021/09/10 07:07:31;;;;;;;;;0.00;0.00;;;;;;;;6339023;22;46835;-82
2021/09/10 07:09:57;;;;;;;;;0.00;0.00;;;;;;;;6338660;22;47718;-81
2021/09/10 07:12:23;;;;;;;;;0.00;0.00;;;;;;;;6338321;22;47049;-81
2021/09/10 07:14:48;;;;;;;;;0.00;0.00;;;;;;;;6309786;22;46960;-81
2021/09/10 07:17:13;;;;;;;;;0.00;0.00;;;;;;;;6338527;22;46879;-81
2021/09/10 07:19:39;;;;;;;;;0.00;0.00;;;;;;;;6338382;22;47745;-81
2021/09/10 07:22:04;;;;;;;;;0.00;0.00;;;;;;;;6335915;22;46979;-81
2021/09/10 07:24:29;;;;;;;;;0.00;0.00;;;;;;;;6338590;22;47195;-81
2021/09/10 07:26:55;;;;;;;;;0.00;0.00;;;;;;;;6338805;22;46853;-81
2021/09/10 07:29:22;;;;;;;;;0.00;0.00;;;;;;;;6335439;22;49152;-82
2021/09/10 07:31:48;;;;;;;;;0.00;0.00;;;;;;;;6338846;22;46762;-82
2021/09/10 07:34:13;;;;;;;;;0.00;0.00;;;;;;;;6340216;22;46827;-79
2021/09/10 07:36:39;;;;;;;;;0.00;0.00;;;;;;;;6337982;22;46959;-79
2021/09/10 07:39:04;;;;;;;;;0.00;0.00;;;;;;;;6310863;22;48290;-79
2021/09/10 07:41:29;;;;;;;;;0.00;0.00;;;;;;;;6339629;22;46771;-79
2021/09/10 07:43:55;;;;;;;;;0.00;0.00;;;;;;;;6339880;22;46841;-79
2021/09/10 07:46:20;;;;;;;;;0.00;0.00;;;;;;;;6339758;22;46887;-79
2021/09/10 07:48:45;;;;;;;;;0.00;0.00;;;;;;;;6339546;22;47495;-79
2021/09/10 07:51:11;;;;;;;;;0.00;0.00;;;;;;;;6339366;22;46885;-79
2021/09/10 07:53:36;;;;;;;;;0.00;0.00;;;;;;;;6340037;22;46847;-79
2021/09/10 07:56:01;;;;;;;;;0.00;0.00;;;;;;;;6337909;22;47045;-79
2021/09/10 07:58:27;;;;;;;;;0.00;0.00;;;;;;;;6339253;22;46929;-79
2021/09/10 08:00:52;;;;;;;;;0.00;0.00;;;;;;;;6339292;22;46805;-79
2021/09/10 08:03:18;;;;;;;;;0.00;0.00;;;;;;;;6339887;22;46833;-79
2021/09/10 08:05:43;;;;;;;;;0.00;0.00;;;;;;;;6340215;22;47202;-80
2021/09/10 08:08:09;;;;;;;;;0.00;0.00;;;;;;;;6339773;22;46963;-79
2021/09/10 08:10:34;;;;;;;;;0.00;0.00;;;;;;;;6339702;22;46863;-79
2021/09/10 08:13:00;;;;;;;;;0.00;0.00;;;;;;;;6339348;22;47013;-82
2021/09/10 08:15:25;;;;;;;;;0.00;0.00;;;;;;;;6339681;22;47119;-82
2021/09/10 08:17:50;;;;;;;;;0.00;0.00;;;;;;;;6339242;22;46889;-83
2021/09/10 08:20:17;;;;;;;;;0.00;0.00;;;;;;;;6339820;22;46789;-83
2021/09/10 08:22:43;;;;;;;;;0.00;0.00;;;;;;;;6337061;22;46806;-83
2021/09/10 08:25:11;;;;;;;;;0.00;0.00;;;;;;;;6339846;22;46722;-83
2021/09/10 08:27:44;;;;;;;;;0.00;0.00;;;;;;;;6339477;22;47116;-83
2021/09/10 08:30:10;;;;;;;;;0.00;0.00;;;;;;;;6338912;22;46765;-83
2021/09/10 08:32:35;;;;;;;;;0.00;0.00;;;;;;;;6339658;22;46977;-85
2021/09/10 08:35:01;;;;;;;;;0.00;0.00;;;;;;;;6337917;22;47087;-81
2021/09/10 08:37:27;;;;;;;;;0.00;0.00;;;;;;;;6339919;22;47668;-79
2021/09/10 08:39:54;;;;;;;;;0.00;0.00;;;;;;;;6339909;22;47008;-81
2021/09/10 08:42:20;;;;;;;;;0.00;0.00;;;;;;;;6338718;22;47284;-82
2021/09/10 08:44:46;;;;;;;;;0.00;0.00;;;;;;;;6311291;22;46746;-82
2021/09/10 08:47:14;;;;;;;;;0.00;0.00;;;;;;;;6311239;22;48606;-85
2021/09/10 08:49:45;;;;;;;;;0.00;0.00;;;;;;;;6339124;22;46895;-85
2021/09/10 08:52:22;;;;;;;;;0.00;0.00;;;;;;;;6339433;22;46842;-85
2021/09/10 08:55:03;;;;;;;;;;;;;;;;;;;;;
2021/09/10 08:57:39;;;;;;;;;;;;;;;;;;;;;
2021/09/10 09:00:17;;;;;;;;;0.00;0.00;;;;;;;;6337839;22;74435;-85
2021/09/10 09:03:02;;;;;;;;;0.00;0.00;;;;;;;;6339354;22;46749;-84
2021/09/10 09:08:49;;;;;;;;;0.00;0.00;;;;;;;;6326375;22;47942;-84
2021/09/10 09:11:35;;;;;;;;;0.00;0.00;;;;;;;;6311112;22;46955;-85
2021/09/10 09:23:47;;;;;;;;;0.00;0.00;;;;;;;;6275069;22;47133;-85
2021/09/10 09:29:40;;;;;;;;;0.00;0.00;;;;;;;;6324522;22;47331;-85
2021/09/10 09:32:28;;;;;;;;;0.00;0.00;;;;;;;;6278946;22;49200;-84
2021/09/10 09:35:08;;;;;;;;;;;;;;;;;;;;;
2021/09/10 09:37:34;;;;;;;;;0.00;0.00;;;;;;;;6306399;22;72894;-84
2021/09/10 09:40:08;;;;;;;;;0.00;0.00;;;;;;;;6308283;22;47079;-84
2021/09/10 09:42:48;;;;;;;;;0.00;0.00;;;;;;;;6307795;22;47861;-85
2021/09/10 09:45:26;;;;;;;;;;;;;;;;;;;;;
2021/09/10 09:48:08;;;;;;;;;0.00;0.00;;;;;;;;6306680;22;73415;-85
2021/09/10 09:50:52;;;;;;;;;0.00;0.00;;;;;;;;6307646;22;46881;-85
2021/09/10 09:53:18;;;;;;;;;0.00;0.00;;;;;;;;6307557;22;46920;-85
2021/09/10 09:56:06;;;;;;;;;;;;;;;;;;;;;
2021/09/10 09:58:49;;;;;;;;;0.00;0.00;;;;;;;;6306387;22;72856;-85
2021/09/10 10:01:16;;;;;;;;;0.00;0.00;;;;;;;;6307832;22;46903;-85
2021/09/10 10:06:41;;;;;;;;;0.00;0.00;;;;;;;;6300202;22;46945;-85
2021/09/10 10:09:08;;;;;;;;;0.00;0.00;;;;;;;;6278853;22;46829;-85
2021/09/10 10:11:47;;;;;;;;;0.00;0.00;;;;;;;;6307693;22;47078;-85
2021/09/10 10:14:34;;;;;;;;;0.00;0.00;;;;;;;;6307574;22;47006;-85
2021/09/10 10:17:06;;;;;;;;;0.00;0.00;;;;;;;;6307877;22;46853;-85
2021/09/10 10:19:36;;;;;;;;;0.00;0.00;;;;;;;;6307897;22;46890;-84
2021/09/10 10:22:26;;;;;;;;;0.00;0.00;;;;;;;;6307641;22;46841;-86
2021/09/10 10:24:55;;;;;;;;;0.00;0.00;;;;;;;;6306493;22;46801;-86
2021/09/10 10:27:39;;;;;;;;;0.00;0.00;;;;;;;;6306631;22;47139;-86
2021/09/10 10:30:06;;;;;;;;;0.00;0.00;;;;;;;;6317145;22;46924;-85
2021/09/10 10:32:38;;;;;;;;;0.00;0.00;;;;;;;;6339169;22;46939;-85
2021/09/10 10:35:14;;;;;;;;;0.00;0.00;;;;;;;;6338143;22;46880;-85
2021/09/10 10:37:43;;;;;;;;;0.00;0.00;;;;;;;;6341524;22;46859;-85
2021/09/10 10:43:33;;;;;;;;;0.00;0.00;;;;;;;;6211366;22;46898;-83
2021/09/10 10:46:14;;;;;;;;;;;;;;;;;;;;;
2021/09/10 10:49:04;;;;;;;;;0.00;0.00;;;;;;;;6210640;22;74369;-83
2021/09/10 10:54:48;;;;;;;;;;;;;;;;;;;;;
2021/09/10 10:58:02;;;;;;;;;;;;;;;;;;;;;
2021/09/10 11:00:31;;;;;;;;;0.00;0.00;;;;;;;;6335475;22;47115;-83
2021/09/10 11:03:24;;;;;;;;;;;;;;;;;;;;;
2021/09/10 11:06:04;;;;;;;;;;;;;;;;;;;;;
2021/09/10 11:08:49;;;;;;;;;;;;;;;;;;;;;
2021/09/10 11:14:25;;;;;;;;;0.00;0.00;;;;;;;;6311593;22;46740;-83
2021/09/10 11:17:27;;;;;;;;;0.00;0.00;;;;;;;;6338551;22;47189;-83
2021/09/10 11:23:00;;;;;;;;;0.00;0.00;;;;;;;;6219322;22;47012;-83
2021/09/10 11:25:47;;;;;;;;;0.00;0.00;;;;;;;;6242051;22;47106;-83
2021/09/10 11:28:18;;;;;;;;;0.00;0.00;;;;;;;;6215992;22;47259;-83
2021/09/10 11:30:57;;;;;;;;;;;;;;;;;;;;;
2021/09/10 11:33:25;;;;;;;;;0.00;0.00;;;;;;;;6240634;22;74497;-83
2021/09/10 11:35:55;;;;;;;;;0.00;0.00;;;;;;;;6242129;22;46810;-82
2021/09/10 11:38:21;;;;;;;;;0.00;0.00;;;;;;;;6242358;22;46890;-83
2021/09/10 11:40:52;;;;;;;;;0.00;0.00;;;;;;;;6215731;22;48615;-83
2021/09/10 11:43:57;;;;;;;;;;;;;;;;;;;;;
2021/09/10 11:46:33;;;;;;;;;0.00;0.00;;;;;;;;6240030;22;73038;-83
2021/09/10 11:49:15;;;;;;;;;0.00;0.00;;;;;;;;6282186;22;47142;-83
2021/09/10 11:51:57;;;;;;;;;;;;;;;;;;;;;
2021/09/10 11:54:31;;;;;;;;;0.00;0.00;;;;;;;;6305156;22;75324;-84
2021/09/10 11:57:23;;;;;;;;;0.00;0.00;;;;;;;;6304807;22;46793;-84
2021/09/10 11:59:52;;;;;;;;;0.25;0.25;;;;;;;;6302075;22;46713;-83
2021/09/10 12:02:22;;;;;;;;;0.00;0.00;;;;;;;;6307172;22;47308;-82
2021/09/10 12:04:56;;;;;;;;;0.00;0.00;;;;;;;;6306938;22;46891;-83
2021/09/10 12:07:49;;;;;;;;;0.00;0.00;;;;;;;;6306119;22;46932;-82
2021/09/10 12:10:45;;;;;;;;;;;;;;;;;;;;;
2021/09/10 12:13:35;;;;;;;;;0.00;0.00;;;;;;;;6294853;22;76394;-83
2021/09/10 12:16:30;;;;;;;;;;;;;;;;;;;;;
2021/09/10 12:19:04;;;;;;;;;0.00;0.00;;;;;;;;6296307;22;73052;-82
2021/09/10 12:21:51;;;;;;;;;0.00;0.00;;;;;;;;6308519;22;46769;-82
2021/09/10 12:24:51;;;;;;;;;;;;;;;;;;;;;
2021/09/10 12:27:59;;;;;;;;;;;;;;;;;;;;;
2021/09/10 12:30:35;;;;;;;;;0.00;0.00;;;;;;;;6289046;22;73428;-83
2021/09/10 12:36:32;;;;;;;;;;;;;;;;;;;;;
2021/09/10 12:42:29;;;;;;;;;;;;;;;;;;;;;
2021/09/10 12:45:18;;;;;;;;;0.00;0.00;;;;;;;;6338112;22;68898;-83
2021/09/10 12:48:15;;;;;;;;;0.00;0.00;;;;;;;;6310941;22;46930;-83
2021/09/10 13:00:12;;;;;;;;;0.00;0.00;;;;;;;;6248059;22;46927;-81
2021/09/10 13:02:37;;;;;;;;;0.00;0.00;;;;;;;;6274584;22;46777;-81
2021/09/10 13:05:03;;;;;;;;;0.00;0.00;;;;;;;;6320419;22;46904;-82
2021/09/10 13:07:29;;;;;;;;;0.00;0.00;;;;;;;;6340222;22;47154;-82
2021/09/10 13:09:54;;;;;;;;;0.00;0.00;;;;;;;;6340092;22;47685;-82
2021/09/10 13:12:20;;;;;;;;;0.00;0.00;;;;;;;;6311432;22;47051;-82
2021/09/10 13:14:48;;;;;;;;;0.00;0.00;;;;;;;;6339912;22;46695;-82
2021/09/10 13:17:21;;;;;;;;;0.00;0.00;;;;;;;;6339862;22;46990;-82
2021/09/10 13:19:47;;;;;;;;;0.00;0.00;;;;;;;;6339418;22;47769;-81
2021/09/10 13:22:12;;;;;;;;;0.00;0.00;;;;;;;;6339211;22;47064;-81
2021/09/10 13:24:38;;;;;;;;;0.00;0.00;;;;;;;;6340193;22;46894;-81
2021/09/10 13:27:04;;;;;;;;;0.00;0.00;;;;;;;;6311831;22;47290;-81
2021/09/10 13:29:29;;;;;;;;;0.00;0.00;;;;;;;;6337720;22;48020;-82
2021/09/10 13:31:55;;;;;;;;;0.00;0.00;;;;;;;;6339933;22;46942;-83
2021/09/10 13:34:23;;;;;;;;;0.00;0.00;;;;;;;;6340034;22;47026;-82
2021/09/10 13:36:48;;;;;;;;;0.00;0.00;;;;;;;;6339156;22;46816;-83
2021/09/10 13:39:13;;;;;;;;;0.00;0.00;;;;;;;;6339181;22;46933;-84
2021/09/10 13:41:38;;;;;;;;;0.00;0.00;;;;;;;;6339733;22;46895;-84
2021/09/10 13:44:04;;;;;;;;;0.00;0.00;;;;;;;;6340232;22;46944;-85
2021/09/10 13:46:31;;;;;;;;;0.00;0.00;;;;;;;;6340409;22;46718;-92
2021/09/10 13:49:04;;;;;;;;;0.00;0.00;;;;;;;;6340221;22;47683;-94
2021/09/10 13:51:30;;;;;;;;;0.00;0.00;;;;;;;;6313217;22;46922;-93
2021/09/10 13:53:55;;;;;;;;;0.00;0.00;;;;;;;;6338414;22;46844;-93
2021/09/10 13:56:23;;;;;;;;;0.00;0.00;;;;;;;;6312514;22;47101;-92
2021/09/10 13:58:55;;;;;;;;;0.00;0.00;;;;;;;;6339654;22;47017;-93
2021/09/10 14:01:23;;;;;;;;;0.00;0.00;;;;;;;;6313675;22;47653;-94
2021/09/10 14:03:48;;;;;;;;;0.00;0.00;;;;;;;;6322032;22;46973;-92
2021/09/10 14:06:14;;;;;;;;;0.00;0.00;;;;;;;;6334196;22;46380;-90
2021/09/10 14:08:39;;;;;;;;;0.00;0.00;;;;;;;;6341980;22;46821;-92
2021/09/10 14:11:04;;;;;;;;;0.00;0.00;;;;;;;;6341810;22;46813;-91
2021/09/10 14:13:33;;;;;;;;;0.00;0.00;;;;;;;;6310962;22;47000;-92
2021/09/10 14:15:58;;;;;;;;;0.00;0.00;;;;;;;;6338690;22;46923;-88
2021/09/10 14:18:23;;;;;;;;;0.00;0.00;;;;;;;;6339247;22;46817;-84
2021/09/10 14:20:49;;;;;;;;;0.00;0.00;;;;;;;;6339435;22;46841;-84
2021/09/10 14:23:14;;;;;;;;;0.00;0.00;;;;;;;;6339220;22;46765;-84
2021/09/10 14:25:40;;;;;;;;;0.00;0.00;;;;;;;;6311071;22;46797;-84
2021/09/10 14:28:05;;;;;;;;;0.00;0.00;;;;;;;;6339030;22;48032;-84
2021/09/10 14:30:31;;;;;;;;;4.50;4.50;;;;;;;;6338422;22;47101;-84
2021/09/10 14:32:56;;;;;;;;;0.00;0.00;;;;;;;;6310790;22;47024;-83
2021/09/10 14:35:21;;;;;;;;;0.00;0.00;;;;;;;;6339029;22;46795;-84
2021/09/10 14:37:47;;;;;;;;;0.00;0.00;;;;;;;;6338878;22;47826;-84
2021/09/10 14:40:13;;;;;;;;;0.00;0.00;;;;;;;;6338627;22;47059;-84
2021/09/10 14:42:38;;;;;;;;;0.00;0.00;;;;;;;;6310488;22;47085;-84
2021/09/10 14:45:05;;;;;;;;;0.00;0.00;;;;;;;;6310526;22;46793;-83
2021/09/10 14:47:30;;;;;;;;;0.00;0.00;;;;;;;;6339180;22;47627;-83
2021/09/10 14:49:56;;;;;;;;;0.00;0.00;;;;;;;;6339209;22;46781;-84
2021/09/10 14:52:21;;;;;;;;;0.00;0.00;;;;;;;;6339229;22;46796;-83
2021/09/10 14:54:46;;;;;;;;;0.00;0.00;;;;;;;;6339341;22;47089;-84
2021/09/10 14:57:14;;;;;;;;;0.00;0.00;;;;;;;;6336922;22;47950;-84
2021/09/10 15:02:25;;;;;;;;;0.00;0.00;;;;;;;;6338550;22;46918;-84
2021/09/10 15:04:50;;;;;;;;;0.00;0.00;;;;;;;;6310225;22;47476;-84
2021/09/10 15:07:15;;;;;;;;;0.00;0.00;;;;;;;;6338642;22;47632;-84
2021/09/10 15:09:43;;;;;;;;;0.00;0.00;;;;;;;;6336408;22;47578;-85
2021/09/10 15:12:28;;;;;;;;;0.00;0.00;;;;;;;;6337995;22;46936;-84
2021/09/10 15:15:09;;;;;;;;;0.00;0.00;;;;;;;;6310085;22;47328;-84
2021/09/10 15:17:34;;;;;;;;;0.00;0.00;;;;;;;;6338805;22;46883;-84
2021/09/10 15:20:00;;;;;;;;;0.00;0.00;;;;;;;;6310314;22;46828;-84
2021/09/10 15:22:26;;;;;;;;;0.00;0.00;;;;;;;;6336595;22;46849;-84
2021/09/10 15:24:54;;;;;;;;;0.00;0.00;;;;;;;;6339085;22;46925;-84
2021/09/10 15:27:22;;;;;;;;;0.00;0.00;;;;;;;;6310208;22;48523;-84
2021/09/10 15:29:55;;;;;;;;;0.00;0.00;;;;;;;;6303964;22;47689;-84
2021/09/10 15:32:28;;;;;;;;;0.00;0.00;;;;;;;;6305139;22;47040;-84
2021/09/10 15:34:55;;;;;;;;;0.00;0.00;;;;;;;;6305277;22;46953;-84
2021/09/10 15:37:23;;;;;;;;;0.00;0.00;;;;;;;;6304720;22;49465;-84
2021/09/10 15:39:59;;;;;;;;;0.00;0.00;;;;;;;;6309971;22;46777;-84
2021/09/10 15:42:47;;;;;;;;;0.00;0.00;;;;;;;;6307220;22;46849;-84
2021/09/10 15:45:30;;;;;;;;;0.00;0.00;;;;;;;;6304467;22;47212;-84
2021/09/10 15:48:29;;;;;;;;;;;;;;;;;;;;;
2021/09/10 15:51:18;;;;;;;;;0.00;0.00;;;;;;;;6297103;22;74484;-85
2021/09/10 15:53:48;;;;;;;;;0.00;0.00;;;;;;;;6305800;22;46854;-84
2021/09/10 16:02:49;;;;;;;;;0.00;0.00;;;;;;;;6307928;22;46986;-84
2021/09/10 16:05:51;;;;;;;;;0.00;0.00;;;;;;;;6305539;22;47097;-88
2021/09/10 16:08:17;;;;;;;;;0.00;0.00;;;;;;;;6305535;22;46795;-86
2021/09/10 16:10:42;;;;;;;;;0.00;0.00;;;;;;;;6305302;22;48240;-85
2021/09/10 16:13:07;;;;;;;;;0.00;0.00;;;;;;;;6307850;22;46912;-85
2021/09/10 16:16:07;;;;;;;;;0.00;0.00;;;;;;;;6305474;22;46990;-86
2021/09/10 16:27:48;;;;;;;;;0.00;0.00;;;;;;;;6231152;22;46865;-89
2021/09/10 16:30:14;;;;;;;;;0.00;0.00;;;;;;;;6241858;22;46865;-89
2021/09/10 16:32:40;;;;;;;;;0.00;0.00;;;;;;;;6272851;22;47116;-85